createdAt,value
2022-10-26T00:00:36.481Z,5.50
2022-10-26T00:03:04.979Z,5.53
2022-10-26T00:05:35.596Z,6.20
2022-10-26T00:08:03.963Z,6.10
2022-10-26T00:10:32.240Z,6.20
2022-10-26T00:13:00.522Z,5.70
2022-10-26T00:15:28.919Z,5.57
2022-10-26T00:17:57.274Z,6.10
2022-10-26T00:20:25.663Z,6.13
2022-10-26T00:22:55.402Z,6.03
2022-10-26T00:25:23.746Z,6.03
2022-10-26T00:27:52.259Z,6.57
2022-10-26T00:30:20.553Z,5.83
2022-10-26T00:32:49.029Z,5.37
2022-10-26T00:35:24.183Z,6.10
2022-10-26T00:38:04.376Z,5.80
2022-10-26T00:40:32.637Z,5.70
2022-10-26T00:43:02.642Z,5.93
2022-10-26T00:45:31.387Z,6.00
2022-10-26T00:48:00.478Z,5.70
2022-10-26T00:50:30.372Z,6.17
2022-10-26T00:52:58.657Z,6.10
2022-10-26T00:55:28.853Z,5.60
2022-10-26T00:57:57.338Z,5.67
2022-10-26T01:00:25.772Z,5.70
2022-10-26T01:02:54.528Z,6.23
2022-10-26T01:05:23.088Z,6.03
2022-10-26T01:07:51.650Z,6.13
2022-10-26T01:10:20.217Z,5.53
2022-10-26T01:12:49.885Z,5.60
2022-10-26T01:15:18.437Z,6.23
2022-10-26T01:17:51.451Z,5.87
2022-10-26T01:20:41.027Z,5.70
2022-10-26T01:23:10.357Z,6.03
2022-10-26T01:25:43.610Z,6.10
2022-10-26T01:28:15.331Z,6.43
2022-10-26T01:30:45.929Z,6.50
2022-10-26T01:33:22.631Z,5.60
2022-10-26T01:35:52.724Z,5.73
2022-10-26T01:38:24.230Z,6.23
2022-10-26T01:40:54.076Z,5.57
2022-10-26T01:43:22.364Z,5.90
2022-10-26T01:45:52.086Z,5.77
2022-10-26T01:48:20.837Z,5.87
2022-10-26T01:50:49.517Z,5.80
2022-10-26T01:53:17.916Z,5.67
2022-10-26T01:55:47.399Z,5.50
2022-10-26T01:58:18.853Z,6.00
2022-10-26T02:00:49.112Z,6.30
2022-10-26T02:03:19.087Z,5.90
2022-10-26T02:05:50.029Z,4.90
2022-10-26T02:08:22.020Z,5.40
2022-10-26T02:10:52.328Z,5.67
2022-10-26T02:13:21.771Z,5.37
2022-10-26T02:15:51.329Z,5.40
2022-10-26T02:18:23.473Z,5.73
2022-10-26T02:20:52.370Z,5.60
2022-10-26T02:23:20.688Z,5.20
2022-10-26T02:25:50.002Z,6.27
2022-10-26T02:28:19.622Z,5.43
2022-10-26T02:30:48.255Z,5.40
2022-10-26T02:33:16.532Z,5.80
2022-10-26T02:35:46.932Z,5.90
2022-10-26T02:38:15.218Z,5.87
2022-10-26T02:40:43.521Z,5.33
2022-10-26T02:43:12.926Z,5.90
2022-10-26T02:45:41.440Z,5.73
2022-10-26T02:48:09.772Z,5.60
2022-10-26T02:50:41.790Z,5.23
2022-10-26T02:53:12.532Z,5.70
2022-10-26T02:55:41.317Z,5.87
2022-10-26T02:58:10.414Z,5.33
2022-10-26T03:00:38.721Z,6.03
2022-10-26T03:03:07.036Z,5.67
2022-10-26T03:05:36.787Z,5.20
2022-10-26T03:08:05.094Z,5.43
2022-10-26T03:10:35.125Z,5.47
2022-10-26T03:13:03.436Z,5.83
2022-10-26T03:15:31.686Z,5.40
2022-10-26T03:18:00.005Z,5.93
2022-10-26T03:20:28.373Z,5.50
2022-10-26T03:22:57.008Z,5.37
2022-10-26T03:25:25.394Z,5.27
2022-10-26T03:27:59.536Z,5.00
2022-10-26T03:30:27.927Z,5.40
2022-10-26T03:32:56.213Z,5.40
2022-10-26T03:35:24.530Z,5.80
2022-10-26T03:37:52.999Z,5.47
2022-10-26T03:40:21.359Z,5.53
2022-10-26T03:42:49.859Z,5.13
2022-10-26T03:45:19.811Z,5.37
2022-10-26T03:47:48.373Z,5.10
2022-10-26T03:50:17.930Z,5.33
2022-10-26T03:52:46.635Z,5.27
2022-10-26T03:55:15.268Z,5.43
2022-10-26T03:57:43.634Z,4.63
2022-10-26T04:00:12.325Z,4.30
2022-10-26T04:02:41.940Z,4.80
2022-10-26T04:05:11.086Z,4.80
2022-10-26T04:07:39.363Z,4.70
2022-10-26T04:10:08.025Z,5.07
2022-10-26T04:12:38.134Z,4.70
2022-10-26T04:15:07.830Z,4.43
2022-10-26T04:17:36.135Z,4.70
2022-10-26T04:20:06.118Z,4.90
2022-10-26T04:22:35.130Z,4.70
2022-10-26T04:25:03.404Z,5.00
2022-10-26T04:27:31.667Z,4.40
2022-10-26T04:29:59.965Z,4.87
2022-10-26T04:32:28.527Z,4.87
2022-10-26T04:34:56.822Z,4.63
2022-10-26T04:37:26.571Z,4.60
2022-10-26T04:39:54.928Z,4.10
2022-10-26T04:42:23.289Z,4.27
2022-10-26T04:44:51.543Z,4.90
2022-10-26T04:47:21.028Z,4.43
2022-10-26T04:49:49.453Z,4.23
2022-10-26T04:52:17.741Z,3.70
2022-10-26T04:54:47.437Z,4.47
2022-10-26T04:57:15.710Z,4.50
2022-10-26T04:59:44.016Z,4.40
2022-10-26T05:02:12.462Z,4.63
2022-10-26T05:04:40.860Z,4.40
2022-10-26T05:07:09.223Z,4.30
2022-10-26T05:09:37.618Z,4.17
2022-10-26T05:12:07.471Z,4.33
2022-10-26T05:14:35.731Z,3.83
2022-10-26T05:17:04.108Z,4.43
2022-10-26T05:19:32.402Z,4.13
2022-10-26T05:22:00.763Z,4.80
2022-10-26T05:24:29.107Z,4.70
2022-10-26T05:26:57.464Z,4.20
2022-10-26T05:29:27.160Z,4.20
2022-10-26T05:31:55.437Z,4.27
2022-10-26T05:34:23.843Z,4.30
2022-10-26T05:36:54.499Z,4.00
2022-10-26T05:39:22.880Z,3.97
2022-10-26T05:41:51.323Z,4.27
2022-10-26T05:44:19.631Z,4.37
2022-10-26T05:49:23.669Z,4.00
2022-10-26T05:51:52.386Z,3.67
2022-10-26T05:54:20.673Z,4.93
2022-10-26T05:56:49.151Z,4.73
2022-10-26T05:59:17.952Z,4.10
2022-10-26T06:01:51.407Z,3.93
2022-10-26T06:04:23.105Z,4.17
2022-10-26T06:06:54.539Z,4.30
2022-10-26T06:09:23.198Z,4.17
2022-10-26T06:11:52.422Z,3.80
2022-10-26T06:14:21.192Z,4.20
2022-10-26T06:16:55.278Z,3.80
2022-10-26T06:19:26.838Z,5.17
2022-10-26T06:21:58.814Z,4.60
2022-10-26T06:24:28.992Z,4.53
2022-10-26T06:26:59.328Z,4.20
2022-10-26T06:29:30.416Z,4.43
2022-10-26T06:32:00.169Z,5.40
2022-10-26T06:34:29.147Z,5.30
2022-10-26T06:36:58.353Z,4.77
2022-10-26T06:39:27.605Z,4.03
2022-10-26T06:41:55.951Z,4.90
2022-10-26T06:44:25.959Z,4.23
2022-10-26T06:46:55.384Z,4.70
2022-10-26T06:49:27.312Z,3.93
2022-10-26T06:51:57.361Z,4.20
2022-10-26T06:54:27.133Z,4.07
2022-10-26T06:56:55.539Z,4.07
2022-10-26T06:59:28.933Z,3.73
2022-10-26T07:01:57.289Z,4.23
2022-10-26T07:04:27.068Z,4.00
2022-10-26T07:06:56.957Z,3.97
2022-10-26T07:09:25.507Z,3.83
2022-10-26T07:11:54.286Z,3.60
2022-10-26T07:14:22.573Z,3.60
2022-10-26T07:16:50.913Z,3.30
2022-10-26T07:19:19.218Z,3.60
2022-10-26T07:21:48.930Z,3.77
2022-10-26T07:24:17.210Z,3.47
2022-10-26T07:26:45.501Z,3.43
2022-10-26T07:29:13.989Z,4.13
2022-10-26T07:31:43.152Z,3.50
2022-10-26T07:34:11.490Z,3.77
2022-10-26T07:36:39.803Z,4.30
2022-10-26T07:39:09.566Z,3.90
2022-10-26T07:41:37.831Z,3.73
2022-10-26T07:44:06.221Z,3.33
2022-10-26T07:46:34.629Z,4.07
2022-10-26T07:49:02.965Z,4.00
2022-10-26T07:51:31.197Z,4.20
2022-10-26T07:53:59.491Z,3.87
2022-10-26T07:56:29.176Z,3.87
2022-10-26T07:58:58.122Z,3.80
2022-10-26T08:01:26.661Z,3.30
2022-10-26T08:03:55.032Z,3.70
2022-10-26T08:06:23.633Z,3.47
2022-10-26T08:08:52.708Z,3.57
2022-10-26T08:11:21.041Z,3.97
2022-10-26T08:16:24.045Z,3.23
2022-10-26T08:18:52.433Z,3.37
2022-10-26T08:21:30.380Z,3.50
2022-10-26T08:24:04.750Z,3.57
2022-10-26T08:26:33.002Z,3.40
2022-10-26T08:29:02.686Z,3.97
2022-10-26T08:31:30.956Z,3.10
2022-10-26T08:33:59.543Z,3.13
2022-10-26T08:36:28.142Z,3.20
2022-10-26T08:38:56.474Z,3.00
2022-10-26T08:41:26.458Z,3.27
2022-10-26T08:43:56.369Z,2.70
2022-10-26T08:46:27.581Z,3.37
2022-10-26T08:48:56.685Z,3.30
2022-10-26T08:51:25.460Z,2.83
2022-10-26T08:53:54.177Z,3.60
2022-10-26T08:56:22.974Z,3.90
2022-10-26T08:58:56.695Z,3.63
2022-10-26T09:01:25.206Z,3.13
2022-10-26T09:03:55.155Z,3.67
2022-10-26T09:06:26.089Z,3.47
2022-10-26T09:08:58.439Z,3.23
2022-10-26T09:11:30.337Z,3.30
2022-10-26T09:14:01.392Z,3.30
2022-10-26T09:16:30.387Z,3.30
2022-10-26T09:19:03.054Z,3.33
2022-10-26T09:21:34.950Z,2.70
2022-10-26T09:24:04.477Z,3.13
2022-10-26T09:26:34.119Z,3.77
2022-10-26T09:29:03.754Z,3.17
2022-10-26T09:31:32.277Z,3.30
2022-10-26T09:34:02.088Z,3.63
2022-10-26T09:36:30.385Z,3.70
2022-10-26T09:38:59.829Z,3.30
2022-10-26T09:41:30.992Z,3.03
2022-10-26T09:44:02.192Z,3.30
2022-10-26T09:46:32.005Z,3.40
2022-10-26T09:51:35.274Z,3.37
2022-10-26T09:54:03.692Z,3.40
2022-10-26T09:56:31.988Z,3.67
2022-10-26T09:59:02.324Z,3.73
2022-10-26T10:01:35.508Z,3.70
2022-10-26T10:04:12.507Z,4.53
2022-10-26T10:06:41.155Z,3.50
2022-10-26T10:09:11.181Z,3.27
2022-10-26T10:11:40.419Z,3.97
2022-10-26T10:14:09.395Z,3.70
2022-10-26T10:16:37.840Z,3.50
2022-10-26T10:19:06.191Z,3.40
2022-10-26T10:21:39.632Z,3.87
2022-10-26T10:24:22.502Z,3.30
2022-10-26T10:26:57.593Z,3.70
2022-10-26T10:29:27.009Z,4.03
2022-10-26T10:31:58.818Z,3.67
2022-10-26T10:34:27.176Z,3.70
2022-10-26T10:36:56.863Z,3.60
2022-10-26T10:39:37.089Z,4.07
2022-10-26T10:42:05.830Z,3.13
2022-10-26T10:44:34.461Z,3.50
2022-10-26T10:47:03.096Z,3.70
2022-10-26T10:49:31.483Z,3.30
2022-10-26T10:52:01.269Z,3.60
2022-10-26T10:54:30.306Z,3.40
2022-10-26T10:56:59.646Z,3.57
2022-10-26T10:59:34.744Z,4.10
2022-10-26T11:02:16.461Z,4.03
2022-10-26T11:04:49.108Z,3.77
2022-10-26T11:07:18.866Z,3.97
2022-10-26T11:09:47.519Z,3.90
2022-10-26T11:12:17.143Z,3.80
2022-10-26T11:14:47.703Z,3.83
2022-10-26T11:17:18.902Z,4.07
2022-10-26T11:19:48.014Z,3.40
2022-10-26T11:22:16.890Z,3.60
2022-10-26T11:24:46.934Z,2.90
2022-10-26T11:27:16.618Z,3.20
2022-10-26T11:29:48.856Z,2.97
2022-10-26T11:32:17.854Z,2.93
2022-10-26T11:34:47.160Z,2.33
2022-10-26T11:37:16.900Z,2.57
2022-10-26T11:39:48.025Z,2.43
2022-10-26T11:42:22.122Z,3.00
2022-10-26T11:44:53.059Z,2.53
2022-10-26T11:47:21.863Z,2.97
2022-10-26T11:49:51.495Z,2.53
2022-10-26T11:52:20.354Z,2.77
2022-10-26T11:54:52.924Z,3.07
2022-10-26T11:57:21.458Z,2.60
2022-10-26T11:59:51.367Z,2.73
2022-10-26T12:02:20.265Z,2.53
2022-10-26T12:04:50.400Z,3.00
2022-10-26T12:07:19.187Z,3.00
2022-10-26T12:09:47.614Z,2.80
2022-10-26T12:12:21.172Z,2.63
2022-10-26T12:14:51.227Z,2.60
2022-10-26T12:17:20.329Z,2.30
2022-10-26T12:19:49.883Z,2.67
2022-10-26T12:22:18.749Z,2.37
2022-10-26T12:24:47.245Z,2.73
2022-10-26T12:27:32.699Z,2.57
2022-10-26T12:30:17.010Z,2.20
2022-10-26T12:32:54.503Z,2.23
2022-10-26T12:35:38.898Z,2.67
2022-10-26T12:38:22.273Z,2.90
2022-10-26T12:40:50.818Z,2.27
2022-10-26T12:43:37.068Z,2.63
2022-10-26T12:46:24.051Z,2.13
2022-10-26T12:48:53.312Z,2.70
2022-10-26T12:51:39.763Z,2.47
2022-10-26T12:54:11.695Z,2.50
2022-10-26T12:56:44.068Z,2.63
2022-10-26T12:59:22.148Z,2.57
2022-10-26T13:02:11.504Z,2.70
2022-10-26T13:04:44.062Z,2.13
2022-10-26T13:07:15.221Z,2.30
2022-10-26T13:09:43.538Z,2.47
2022-10-26T13:12:12.120Z,2.40
2022-10-26T13:14:43.702Z,2.00
2022-10-26T13:17:23.015Z,1.67
2022-10-26T13:19:51.428Z,1.97
2022-10-26T13:22:21.613Z,2.00
2022-10-26T13:24:50.590Z,1.90
2022-10-26T13:27:26.567Z,1.97
2022-10-26T13:33:00.409Z,1.60
2022-10-26T13:35:28.725Z,1.97
2022-10-26T13:37:57.197Z,1.80
2022-10-26T13:40:26.047Z,2.13
2022-10-26T13:42:54.717Z,2.00
2022-10-26T13:45:23.787Z,1.80
2022-10-26T13:47:54.680Z,2.20
2022-10-26T13:50:26.468Z,2.00
2022-10-26T13:52:57.359Z,1.53
2022-10-26T13:55:26.430Z,1.93
2022-10-26T13:58:00.706Z,1.70
2022-10-26T14:00:29.107Z,1.57
2022-10-26T14:02:57.679Z,2.10
2022-10-26T14:05:27.405Z,2.17
2022-10-26T14:07:57.261Z,2.20
2022-10-26T14:10:26.418Z,1.93
2022-10-26T14:12:54.722Z,2.43
2022-10-26T14:15:25.022Z,2.50
2022-10-26T14:17:53.520Z,2.13
2022-10-26T14:20:22.423Z,1.80
2022-10-26T14:22:52.293Z,2.20
2022-10-26T14:25:26.771Z,2.30
2022-10-26T14:28:04.918Z,1.93
2022-10-26T14:30:33.846Z,2.27
2022-10-26T14:33:02.298Z,1.83
2022-10-26T14:35:31.504Z,2.10
2022-10-26T14:38:01.876Z,2.37
2022-10-26T14:40:30.479Z,2.23
2022-10-26T14:42:59.545Z,2.03
2022-10-26T14:45:47.719Z,1.50
2022-10-26T14:48:21.747Z,2.10
2022-10-26T14:50:59.717Z,1.93
2022-10-26T14:53:32.581Z,1.97
2022-10-26T14:56:00.924Z,1.87
2022-10-26T15:01:36.168Z,1.80
2022-10-26T15:04:06.033Z,2.10
2022-10-26T15:06:41.480Z,1.80
2022-10-26T15:09:18.718Z,2.27
2022-10-26T15:11:47.166Z,2.10
2022-10-26T15:14:17.632Z,1.87
2022-10-26T15:16:51.998Z,2.40
2022-10-26T15:19:23.683Z,2.57
2022-10-26T15:21:52.269Z,2.27
2022-10-26T15:24:28.169Z,2.50
2022-10-26T15:26:56.675Z,2.13
2022-10-26T15:29:40.999Z,1.77
2022-10-26T15:32:20.313Z,2.10
2022-10-26T15:34:49.873Z,2.07
2022-10-26T15:37:18.348Z,2.50
2022-10-26T15:39:48.061Z,1.80
2022-10-26T15:42:16.503Z,2.00
2022-10-26T15:44:44.855Z,2.07
2022-10-26T15:47:15.656Z,2.17
2022-10-26T15:49:44.026Z,1.60
2022-10-26T15:52:12.473Z,2.60
2022-10-26T15:54:41.107Z,1.83
2022-10-26T15:57:11.571Z,2.30
2022-10-26T15:59:39.907Z,2.33
2022-10-26T16:02:14.422Z,1.60
2022-10-26T16:04:43.155Z,1.73
2022-10-26T16:07:13.806Z,2.30
2022-10-26T16:09:42.180Z,1.40
2022-10-26T16:12:12.857Z,1.67
2022-10-26T16:15:03.836Z,2.03
2022-10-26T16:17:29.641Z,2.10
2022-10-26T16:19:58.099Z,1.80
2022-10-26T16:22:26.668Z,1.80
2022-10-26T16:24:54.974Z,2.00
2022-10-26T16:27:24.739Z,2.20
2022-10-26T16:29:53.152Z,1.90
2022-10-26T16:32:21.561Z,1.90
2022-10-26T16:34:49.938Z,2.07
2022-10-26T16:37:18.357Z,1.83
2022-10-26T16:39:46.675Z,2.03
2022-10-26T16:42:15.043Z,1.97
2022-10-26T16:44:44.752Z,2.20
2022-10-26T16:47:13.271Z,2.33
2022-10-26T16:49:43.343Z,2.17
2022-10-26T16:52:11.764Z,2.20
2022-10-26T16:54:40.191Z,1.87
2022-10-26T16:57:08.636Z,2.67
2022-10-26T16:59:37.157Z,2.10
2022-10-26T17:02:06.871Z,1.80
2022-10-26T17:04:35.294Z,1.70
2022-10-26T17:07:03.599Z,2.17
2022-10-26T17:09:31.997Z,2.40
2022-10-26T17:12:02.100Z,2.10
2022-10-26T17:14:30.688Z,2.43
2022-10-26T17:16:59.136Z,2.43
2022-10-26T17:19:28.880Z,2.93
2022-10-26T17:21:57.270Z,2.63
2022-10-26T17:24:25.720Z,2.00
2022-10-26T17:26:54.100Z,2.60
2022-10-26T17:29:22.496Z,2.07
2022-10-26T17:31:50.911Z,2.70
2022-10-26T17:34:19.231Z,2.33
2022-10-26T17:36:49.117Z,2.33
2022-10-26T17:39:19.210Z,2.30
2022-10-26T17:41:47.738Z,2.10
2022-10-26T17:44:16.050Z,2.80
2022-10-26T17:46:44.482Z,2.27
2022-10-26T17:49:12.911Z,2.53
2022-10-26T17:51:41.238Z,2.50
2022-10-26T17:54:11.256Z,2.40
2022-10-26T17:56:39.952Z,2.53
2022-10-26T17:59:08.454Z,2.30
2022-10-26T18:01:36.994Z,2.20
2022-10-26T18:04:05.458Z,2.80
2022-10-26T18:06:33.851Z,2.40
2022-10-26T18:09:02.167Z,2.30
2022-10-26T18:14:05.184Z,2.20
2022-10-26T18:16:33.520Z,2.50
2022-10-26T18:19:02.336Z,2.40
2022-10-26T18:21:30.922Z,2.40
2022-10-26T18:23:59.327Z,2.07
2022-10-26T18:26:28.489Z,2.70
2022-10-26T18:28:58.291Z,2.60
2022-10-26T18:31:26.809Z,2.43
2022-10-26T18:33:58.092Z,2.37
2022-10-26T18:36:26.656Z,2.40
2022-10-26T18:38:55.146Z,2.10
2022-10-26T18:41:23.664Z,2.20
2022-10-26T18:43:52.192Z,2.27
2022-10-26T18:46:23.598Z,1.93
2022-10-26T18:48:52.087Z,2.47
2022-10-26T18:51:20.927Z,2.57
2022-10-26T18:53:49.340Z,2.63
2022-10-26T18:56:18.328Z,2.47
2022-10-26T18:58:47.170Z,2.43
2022-10-26T19:01:16.029Z,2.10
2022-10-26T19:03:45.953Z,1.90
2022-10-26T19:06:14.731Z,2.00
2022-10-26T19:08:43.191Z,2.50
2022-10-26T19:11:11.825Z,1.90
2022-10-26T19:13:40.251Z,2.10
2022-10-26T19:16:16.987Z,2.63
2022-10-26T19:18:51.626Z,1.80
2022-10-26T19:21:20.709Z,2.07
2022-10-26T19:23:49.347Z,2.20
2022-10-26T19:26:18.022Z,2.50
2022-10-26T19:28:47.518Z,1.90
2022-10-26T19:31:16.164Z,2.03
2022-10-26T19:33:44.497Z,2.27
2022-10-26T19:36:14.486Z,2.10
2022-10-26T19:38:42.849Z,2.70
2022-10-26T19:41:12.510Z,2.57
2022-10-26T19:43:41.104Z,2.67
2022-10-26T19:46:10.103Z,2.57
2022-10-26T19:48:38.558Z,2.47
2022-10-26T19:51:06.975Z,2.70
2022-10-26T19:53:36.668Z,2.50
2022-10-26T19:56:10.420Z,2.67
2022-10-26T19:58:38.736Z,2.77
2022-10-26T20:01:07.344Z,2.63
2022-10-26T20:03:35.718Z,2.90
2022-10-26T20:06:08.101Z,2.23
2022-10-26T20:08:37.904Z,2.63
2022-10-26T20:11:08.970Z,3.27
2022-10-26T20:13:39.971Z,2.90
2022-10-26T20:16:08.543Z,2.90
2022-10-26T20:18:36.839Z,2.90
2022-10-26T20:21:08.125Z,3.30
2022-10-26T20:23:37.887Z,2.87
2022-10-26T20:28:39.562Z,3.20
2022-10-26T20:31:07.924Z,2.20
2022-10-26T20:33:36.249Z,2.63
2022-10-26T20:36:04.780Z,2.60
2022-10-26T20:38:33.385Z,2.80
2022-10-26T20:41:06.320Z,3.73
2022-10-26T20:43:38.524Z,2.87
2022-10-26T20:46:07.090Z,2.80
2022-10-26T20:48:35.906Z,2.90
2022-10-26T20:51:05.193Z,2.70
2022-10-26T20:53:34.217Z,2.97
2022-10-26T20:56:04.359Z,3.37
2022-10-26T20:58:42.062Z,2.77
2022-10-26T21:01:13.846Z,3.03
2022-10-26T21:03:42.209Z,2.87
2022-10-26T21:06:10.966Z,2.83
2022-10-26T21:08:39.318Z,2.93
2022-10-26T21:11:09.120Z,2.90
2022-10-26T21:13:37.483Z,2.80
2022-10-26T21:16:06.138Z,2.90
2022-10-26T21:18:34.456Z,2.83
2022-10-26T21:21:02.991Z,3.47
2022-10-26T21:23:31.758Z,2.90
2022-10-26T21:26:00.030Z,2.77
2022-10-26T21:28:33.994Z,2.57
2022-10-26T21:31:02.730Z,3.20
2022-10-26T21:33:32.138Z,3.73
2022-10-26T21:36:00.505Z,3.17
2022-10-26T21:38:28.841Z,3.00
2022-10-26T21:41:04.161Z,3.90
2022-10-26T21:43:33.894Z,3.20
2022-10-26T21:46:03.743Z,3.53
2022-10-26T21:48:32.377Z,4.73
2022-10-26T21:51:02.344Z,4.33
2022-10-26T21:53:30.769Z,4.30
2022-10-26T21:56:02.514Z,3.43
2022-10-26T21:58:30.922Z,3.73
2022-10-26T22:01:07.117Z,3.60
2022-10-26T22:03:35.498Z,3.70
2022-10-26T22:06:03.877Z,3.23
2022-10-26T22:08:32.392Z,3.63
2022-10-26T22:11:00.887Z,3.33
2022-10-26T22:13:29.330Z,3.70
2022-10-26T22:16:04.480Z,3.40
2022-10-26T22:18:34.154Z,3.27
2022-10-26T22:21:02.470Z,3.63
2022-10-26T22:23:30.782Z,3.50
2022-10-26T22:26:02.584Z,4.10
2022-10-26T22:28:32.962Z,4.40
2022-10-26T22:31:02.866Z,4.30
2022-10-26T22:33:31.260Z,3.90
2022-10-26T22:36:04.304Z,3.73
2022-10-26T22:38:33.130Z,4.13
2022-10-26T22:41:01.584Z,3.60
2022-10-26T22:43:29.947Z,4.00
2022-10-26T22:46:01.869Z,3.73
2022-10-26T22:48:30.218Z,2.80
2022-10-26T22:50:58.854Z,2.80
2022-10-26T22:53:28.954Z,2.33
2022-10-26T22:55:57.282Z,3.07
2022-10-26T22:58:25.569Z,2.70
2022-10-26T23:00:54.020Z,2.97
2022-10-26T23:03:22.407Z,2.93
2022-10-26T23:05:50.788Z,2.40
2022-10-26T23:08:19.221Z,2.77
2022-10-26T23:10:48.903Z,2.80
2022-10-26T23:13:17.223Z,2.67
2022-10-26T23:15:45.558Z,3.23
2022-10-26T23:18:13.959Z,2.90
2022-10-26T23:20:42.284Z,3.10
2022-10-26T23:23:10.613Z,3.30
2022-10-26T23:25:39.095Z,3.13
2022-10-26T23:28:08.816Z,3.60
2022-10-26T23:30:37.134Z,3.20
2022-10-26T23:33:05.483Z,3.40
2022-10-26T23:35:33.856Z,3.17
2022-10-26T23:38:02.348Z,3.20
2022-10-26T23:40:30.722Z,3.10
2022-10-26T23:42:59.063Z,3.60
2022-10-26T23:45:28.766Z,3.23
2022-10-26T23:47:57.069Z,3.10
2022-10-26T23:50:25.349Z,3.90
2022-10-26T23:52:53.721Z,3.60
2022-10-26T23:55:22.213Z,3.50
2022-10-26T23:57:50.887Z,3.40
